Time;durP1;ratioP1;P1;durP2;ratioP2;P2;SDS_P1;SDS_P2;PMS_P1;PMS_P2;Temp;Humidity;BMP_temperature;BMP_pressure;BME280_temperature;BME280_humidity;BME280_pressure;Samples;Min_cycle;Max_cycle;Signal;HPM_P1;HPM_P2
2021/09/02 00:01:34;;;;;;;7.78;4.20;;;14.10;77.40;;;;;;4803629;29;20062;-74
2021/09/02 00:04:02;;;;;;;11.23;4.28;;;14.00;77.40;;;;;;4801812;29;20055;-74
2021/09/02 00:06:30;;;;;;;9.60;4.18;;;14.00;77.40;;;;;;4819827;29;20057;-75
2021/09/02 00:08:58;;;;;;;13.00;4.18;;;14.00;77.50;;;;;;4819657;29;20050;-73
2021/09/02 00:11:25;;;;;;;8.65;4.07;;;14.00;77.50;;;;;;4804670;29;20057;-74
2021/09/02 00:13:53;;;;;;;13.15;4.25;;;14.00;77.50;;;;;;4818577;29;20099;-75
2021/09/02 00:16:20;;;;;;;10.55;4.15;;;14.00;77.40;;;;;;4804607;29;20545;-75
2021/09/02 00:18:48;;;;;;;8.98;4.15;;;14.00;77.20;;;;;;4804158;29;20051;-75
2021/09/02 00:21:16;;;;;;;9.10;4.15;;;13.90;77.00;;;;;;4822481;29;20050;-74
2021/09/02 00:23:43;;;;;;;10.98;4.03;;;13.90;76.80;;;;;;4823012;29;20070;-75
2021/09/02 00:26:11;;;;;;;10.73;4.30;;;13.90;76.60;;;;;;4822586;29;20399;-75
2021/09/02 00:28:39;;;;;;;13.55;4.80;;;13.90;76.40;;;;;;4823027;29;20050;-75
2021/09/02 00:31:06;;;;;;;7.32;4.20;;;13.80;76.30;;;;;;4823386;29;20053;-74
2021/09/02 00:33:34;;;;;;;9.98;4.60;;;13.80;76.20;;;;;;4822969;29;20065;-74
2021/09/02 00:36:02;;;;;;;11.52;5.00;;;13.80;76.20;;;;;;4822784;29;20047;-74
2021/09/02 00:38:32;;;;;;;13.82;4.88;;;13.80;76.20;;;;;;4808280;29;20066;-75
2021/09/02 00:41:00;;;;;;;15.10;4.93;;;13.80;76.20;;;;;;4804827;29;20051;-74
2021/09/02 00:43:35;;;;;;;10.30;5.07;;;13.80;76.20;;;;;;4804842;29;20057;-74
2021/09/02 00:46:03;;;;;;;14.15;5.07;;;13.80;76.30;;;;;;4804203;29;20066;-74
2021/09/02 00:48:31;;;;;;;15.25;5.47;;;13.80;76.30;;;;;;4805934;29;20059;-74
2021/09/02 00:50:59;;;;;;;14.88;5.40;;;13.80;76.40;;;;;;4807995;29;20648;-75
2021/09/02 00:53:27;;;;;;;11.70;5.15;;;13.80;76.50;;;;;;4807287;29;20058;-75
2021/09/02 00:55:55;;;;;;;12.55;4.30;;;13.80;76.50;;;;;;4807607;29;20058;-74
2021/09/02 00:58:23;;;;;;;16.65;4.93;;;13.80;76.50;;;;;;4807327;29;20051;-75
2021/09/02 01:00:51;;;;;;;13.40;4.18;;;13.70;76.60;;;;;;4821218;29;20346;-74
2021/09/02 01:03:20;;;;;;;10.40;4.43;;;13.70;76.60;;;;;;4791185;29;20072;-73
2021/09/02 01:05:52;;;;;;;10.05;4.20;;;13.80;76.60;;;;;;4807663;29;20062;-74
2021/09/02 01:08:20;;;;;;;12.38;4.70;;;13.80;76.60;;;;;;4807090;29;20075;-74
2021/09/02 01:10:49;;;;;;;12.45;4.68;;;13.80;76.60;;;;;;4807691;29;20081;-74
2021/09/02 01:13:20;;;;;;;12.63;4.30;;;13.70;76.60;;;;;;4805393;29;20057;-74
2021/09/02 01:15:47;;;;;;;9.75;4.30;;;13.70;76.60;;;;;;4807264;29;20050;-75
2021/09/02 01:18:15;;;;;;;12.57;4.70;;;13.70;76.50;;;;;;4804971;29;21570;-75
2021/09/02 01:20:43;;;;;;;12.38;4.10;;;13.70;76.50;;;;;;4801965;29;20051;-75
2021/09/02 01:23:11;;;;;;;14.43;4.78;;;13.70;76.60;;;;;;4801184;29;20047;-75
2021/09/02 01:25:42;;;;;;;11.15;4.80;;;13.60;76.60;;;;;;4802974;29;20055;-75
2021/09/02 01:28:13;;;;;;;14.93;4.85;;;13.60;76.70;;;;;;4802489;29;20050;-73
2021/09/02 01:30:42;;;;;;;15.57;5.20;;;13.60;76.70;;;;;;4803094;29;20516;-74
2021/09/02 01:33:15;;;;;;;10.73;4.65;;;13.60;76.80;;;;;;4803200;29;20054;-73
2021/09/02 01:35:43;;;;;;;9.57;4.43;;;13.60;76.90;;;;;;4801416;29;20059;-74
2021/09/02 01:38:12;;;;;;;12.75;5.13;;;13.60;76.90;;;;;;4815794;29;20047;-74
2021/09/02 01:40:46;;;;;;;16.15;5.45;;;13.60;77.00;;;;;;4802362;29;20047;-74
2021/09/02 01:43:16;;;;;;;10.00;4.72;;;13.60;77.10;;;;;;4815986;29;20055;-74
2021/09/02 01:45:45;;;;;;;12.93;5.30;;;13.60;77.10;;;;;;4802073;29;20062;-74
2021/09/02 01:48:13;;;;;;;13.77;5.20;;;13.60;77.20;;;;;;4802003;29;20053;-73
2021/09/02 01:50:41;;;;;;;12.82;5.38;;;13.50;77.30;;;;;;4801619;29;20057;-74
2021/09/02 01:53:13;;;;;;;12.35;5.53;;;13.60;77.40;;;;;;4802789;29;20050;-74
2021/09/02 01:55:42;;;;;;;12.53;5.93;;;13.60;77.40;;;;;;4801724;29;20478;-73
2021/09/02 01:58:10;;;;;;;10.98;4.97;;;13.60;77.40;;;;;;4801201;29;20801;-74
2021/09/02 02:00:40;;;;;;;13.45;5.65;;;13.50;77.50;;;;;;4802169;29;20059;-74
2021/09/02 02:03:08;;;;;;;10.60;5.50;;;13.50;77.50;;;;;;4803900;29;20051;-74
2021/09/02 02:05:37;;;;;;;14.77;5.55;;;13.60;77.60;;;;;;4806451;29;20498;-74
2021/09/02 02:08:05;;;;;;;14.57;5.70;;;13.50;77.60;;;;;;4804473;29;20081;-74
2021/09/02 02:10:32;;;;;;;12.73;5.72;;;13.50;77.70;;;;;;4815607;29;20058;-74
2021/09/02 02:13:02;;;;;;;14.52;5.90;;;13.50;77.70;;;;;;4801353;29;20423;-74
2021/09/02 02:15:29;;;;;;;13.40;5.90;;;13.60;77.70;;;;;;4801619;29;20047;-74
2021/09/02 02:17:57;;;;;;;17.88;6.97;;;13.60;77.70;;;;;;4801912;29;20046;-74
2021/09/02 02:20:25;;;;;;;14.57;7.05;;;13.60;77.80;;;;;;4799374;29;20054;-74
2021/09/02 02:22:52;;;;;;;14.70;6.40;;;13.50;77.80;;;;;;4801128;29;20050;-74
2021/09/02 02:25:20;;;;;;;13.13;6.60;;;13.50;77.80;;;;;;4800481;29;20051;-75
2021/09/02 02:27:48;;;;;;;13.60;6.50;;;13.50;77.90;;;;;;4801557;29;20043;-74
2021/09/02 02:30:23;;;;;;;17.90;7.97;;;13.50;77.90;;;;;;4801416;29;20051;-74
2021/09/02 02:32:51;;;;;;;17.40;7.38;;;13.50;77.90;;;;;;4800627;29;20046;-75
2021/09/02 02:35:20;;;;;;;13.52;7.20;;;13.50;77.90;;;;;;4801416;29;20054;-75
2021/09/02 02:37:49;;;;;;;19.65;8.50;;;13.50;77.90;;;;;;4815005;29;20054;-74
2021/09/02 02:40:17;;;;;;;14.98;8.60;;;13.50;77.90;;;;;;4799634;29;20544;-74
2021/09/02 02:42:45;;;;;;;17.85;8.88;;;13.50;77.90;;;;;;4800284;29;20055;-75
2021/09/02 02:45:13;;;;;;;16.75;8.90;;;13.50;77.90;;;;;;4801430;29;20066;-75
2021/09/02 02:47:41;;;;;;;15.90;8.88;;;13.50;77.80;;;;;;4801405;29;20069;-75
2021/09/02 02:50:09;;;;;;;17.70;9.15;;;13.50;77.80;;;;;;4801827;29;20059;-75
2021/09/02 02:52:36;;;;;;;17.40;9.98;;;13.50;77.70;;;;;;4801698;29;20057;-75
2021/09/02 02:55:05;;;;;;;17.92;10.05;;;13.50;77.60;;;;;;4800846;29;20058;-75
2021/09/02 02:57:33;;;;;;;19.90;10.55;;;13.50;77.50;;;;;;4802077;29;20058;-75
2021/09/02 03:00:04;;;;;;;14.35;9.70;;;13.50;77.50;;;;;;4803747;29;20489;-75
2021/09/02 03:02:31;;;;;;;16.05;10.10;;;13.50;77.50;;;;;;4804842;29;20054;-75
2021/09/02 03:04:59;;;;;;;19.52;11.00;;;13.50;77.50;;;;;;4805573;29;20051;-75
2021/09/02 03:07:27;;;;;;;17.80;10.85;;;13.50;77.50;;;;;;4805469;29;20057;-75
2021/09/02 03:09:54;;;;;;;18.98;10.70;;;13.50;77.40;;;;;;4805515;29;20054;-74
2021/09/02 03:12:22;;;;;;;19.20;10.20;;;13.50;77.40;;;;;;4803227;29;20046;-75
2021/09/02 03:14:49;;;;;;;18.77;10.25;;;13.50;77.30;;;;;;4805234;29;20070;-75
2021/09/02 03:17:18;;;;;;;17.27;10.77;;;13.50;77.40;;;;;;4804950;29;20055;-76
2021/09/02 03:19:45;;;;;;;18.17;10.70;;;13.50;77.40;;;;;;4787400;29;20054;-75
2021/09/02 03:22:13;;;;;;;22.08;11.38;;;13.50;77.40;;;;;;4804503;29;20055;-74
2021/09/02 03:24:41;;;;;;;17.15;10.13;;;13.50;77.40;;;;;;4787434;29;20478;-74
2021/09/02 03:27:08;;;;;;;19.98;10.90;;;13.50;77.50;;;;;;4797419;29;20050;-73
2021/09/02 03:29:36;;;;;;;19.85;11.05;;;13.50;77.50;;;;;;4804583;29;20405;-74
2021/09/02 03:32:04;;;;;;;19.77;10.80;;;13.50;77.50;;;;;;4804796;29;20043;-74
2021/09/02 03:34:32;;;;;;;19.63;11.45;;;13.50;77.50;;;;;;4803748;29;20620;-74
2021/09/02 03:37:00;;;;;;;18.92;11.45;;;13.50;77.40;;;;;;4803653;29;20050;-74
2021/09/02 03:39:27;;;;;;;22.88;12.02;;;13.50;77.50;;;;;;4803131;29;20058;-74
2021/09/02 03:41:55;;;;;;;18.77;11.25;;;13.50;77.40;;;;;;4791119;29;20065;-73
2021/09/02 03:44:22;;;;;;;19.17;11.38;;;13.50;77.40;;;;;;4805038;29;20061;-73
2021/09/02 03:46:50;;;;;;;22.40;11.93;;;13.50;77.40;;;;;;4818927;29;20062;-74
2021/09/02 03:49:18;;;;;;;21.73;11.98;;;13.50;77.50;;;;;;4803121;29;20046;-74
2021/09/02 03:51:45;;;;;;;23.25;11.68;;;13.50;77.50;;;;;;4817554;29;20062;-74
2021/09/02 03:54:13;;;;;;;25.55;12.00;;;13.40;77.50;;;;;;4804571;29;20046;-74
2021/09/02 03:56:40;;;;;;;20.88;12.27;;;13.40;77.50;;;;;;4804689;29;20043;-74
2021/09/02 03:59:08;;;;;;;20.70;12.05;;;13.50;77.50;;;;;;4803719;29;20054;-75
2021/09/02 04:01:35;;;;;;;26.38;12.93;;;13.50;77.50;;;;;;4818462;29;20058;-74
2021/09/02 04:04:03;;;;;;;22.33;12.15;;;13.40;77.50;;;;;;4804718;29;20050;-74
2021/09/02 04:06:31;;;;;;;21.05;12.00;;;13.40;77.50;;;;;;4804671;29;20054;-75
2021/09/02 04:08:58;;;;;;;19.55;11.98;;;13.50;77.60;;;;;;4804508;29;20058;-74
2021/09/02 04:11:26;;;;;;;18.50;12.05;;;13.50;77.60;;;;;;4804825;29;20069;-74
2021/09/02 04:13:54;;;;;;;22.00;12.50;;;13.50;77.60;;;;;;4804435;29;20054;-75
2021/09/02 04:16:22;;;;;;;21.35;11.73;;;13.50;77.60;;;;;;4804340;29;20047;-75
2021/09/02 04:18:50;;;;;;;23.55;12.82;;;13.40;77.60;;;;;;4804324;29;20051;-74
2021/09/02 04:21:18;;;;;;;20.23;11.70;;;13.40;77.70;;;;;;4804180;29;20050;-75
2021/09/02 04:23:48;;;;;;;19.02;11.45;;;13.40;77.70;;;;;;4806657;29;20057;-74
2021/09/02 04:26:16;;;;;;;18.23;11.38;;;13.40;77.70;;;;;;4808269;29;20058;-74
2021/09/02 04:28:43;;;;;;;24.15;11.25;;;13.40;77.70;;;;;;4807722;29;20489;-74
2021/09/02 04:31:11;;;;;;;21.02;11.35;;;13.40;77.60;;;;;;4808081;29;20054;-75
2021/09/02 04:33:39;;;;;;;17.50;11.02;;;13.40;77.50;;;;;;4821679;29;20095;-74
2021/09/02 04:36:06;;;;;;;16.38;11.50;;;13.40;77.40;;;;;;4806805;29;20074;-74
2021/09/02 04:38:34;;;;;;;25.83;11.93;;;13.40;77.40;;;;;;4803569;29;20409;-74
2021/09/02 04:41:01;;;;;;;16.38;9.75;;;13.40;77.50;;;;;;4806917;29;20390;-75
2021/09/02 04:43:29;;;;;;;16.85;10.63;;;13.40;77.30;;;;;;4807680;29;20468;-74
2021/09/02 04:45:57;;;;;;;15.00;10.55;;;13.40;77.20;;;;;;4821640;29;20054;-74
2021/09/02 04:48:24;;;;;;;14.98;10.13;;;13.50;76.90;;;;;;4806532;29;20047;-74
2021/09/02 04:50:52;;;;;;;13.50;9.88;;;13.40;76.60;;;;;;4806585;29;20075;-75
2021/09/02 04:53:20;;;;;;;18.30;10.52;;;13.50;76.60;;;;;;4821727;29;20067;-75
2021/09/02 04:55:48;;;;;;;17.77;10.90;;;13.50;76.60;;;;;;4807321;29;20485;-75
2021/09/02 04:58:15;;;;;;;17.90;11.00;;;13.40;76.50;;;;;;4807308;29;20047;-74
2021/09/02 05:00:43;;;;;;;16.90;10.43;;;13.40;76.50;;;;;;4807375;29;20047;-75
2021/09/02 05:03:12;;;;;;;18.98;10.60;;;13.40;76.60;;;;;;4807402;29;20047;-75
2021/09/02 05:05:40;;;;;;;16.17;9.70;;;13.40;76.60;;;;;;4807091;29;20413;-74
2021/09/02 05:08:07;;;;;;;13.88;9.73;;;13.40;76.70;;;;;;4807272;29;20046;-74
2021/09/02 05:10:35;;;;;;;17.55;10.80;;;13.40;76.70;;;;;;4807404;29;20046;-75
2021/09/02 05:13:02;;;;;;;14.77;9.35;;;13.40;76.80;;;;;;4807310;29;20062;-75
2021/09/02 05:15:30;;;;;;;15.45;9.00;;;13.40;76.80;;;;;;4821245;29;20058;-75
2021/09/02 05:17:58;;;;;;;12.90;8.43;;;13.40;76.90;;;;;;4805686;29;20505;-75
2021/09/02 05:20:25;;;;;;;14.70;9.32;;;13.40;76.90;;;;;;4807343;29;20409;-74
2021/09/02 05:22:53;;;;;;;14.52;9.10;;;13.40;77.00;;;;;;4820350;29;20063;-75
2021/09/02 05:25:20;;;;;;;16.83;9.40;;;13.40;77.10;;;;;;4805694;29;20050;-75
2021/09/02 05:27:48;;;;;;;11.52;8.40;;;13.40;77.10;;;;;;4790217;29;20047;-74
2021/09/02 05:30:16;;;;;;;10.93;8.27;;;13.30;77.20;;;;;;4806722;29;20061;-74
2021/09/02 05:32:45;;;;;;;15.77;8.90;;;13.40;77.30;;;;;;4807539;29;20425;-74
2021/09/02 05:35:14;;;;;;;12.98;8.45;;;13.30;77.50;;;;;;4805654;29;20062;-75
2021/09/02 05:37:42;;;;;;;15.07;8.90;;;13.40;77.50;;;;;;4806626;29;20054;-75
2021/09/02 05:40:11;;;;;;;13.60;8.93;;;13.30;77.50;;;;;;4806875;29;20077;-74
2021/09/02 05:42:38;;;;;;;14.40;8.88;;;13.40;77.50;;;;;;4805167;29;20047;-75
2021/09/02 05:45:08;;;;;;;15.88;9.30;;;13.30;77.50;;;;;;4805443;29;20058;-75
2021/09/02 05:47:36;;;;;;;11.55;8.45;;;13.40;77.60;;;;;;4805694;29;20055;-74
2021/09/02 05:50:05;;;;;;;9.88;7.20;;;13.40;77.60;;;;;;4806576;29;20050;-74
2021/09/02 05:52:32;;;;;;;10.75;5.57;;;13.40;77.60;;;;;;4820287;29;20084;-75
2021/09/02 05:55:00;;;;;;;6.22;5.55;;;13.40;77.50;;;;;;4806716;29;20063;-74
2021/09/02 05:57:28;;;;;;;7.40;4.60;;;13.40;77.50;;;;;;4805915;29;20058;-74
2021/09/02 05:59:55;;;;;;;5.38;4.13;;;13.40;77.40;;;;;;4805540;29;20047;-74
2021/09/02 06:02:23;;;;;;;4.97;4.15;;;13.40;77.40;;;;;;4806561;29;20477;-75
2021/09/02 06:04:51;;;;;;;4.55;4.15;;;13.40;77.40;;;;;;4805753;29;20670;-74
2021/09/02 06:07:18;;;;;;;4.60;3.92;;;13.40;77.30;;;;;;4806477;29;20047;-75
2021/09/02 06:09:46;;;;;;;5.18;3.97;;;13.40;77.30;;;;;;4804964;29;20406;-74
2021/09/02 06:12:14;;;;;;;4.70;4.20;;;13.40;77.30;;;;;;4819545;29;20063;-73
2021/09/02 06:14:41;;;;;;;5.43;3.78;;;13.40;77.30;;;;;;4806484;29;20051;-74
2021/09/02 06:17:09;;;;;;;4.13;3.60;;;13.40;77.20;;;;;;4805168;29;20437;-75
2021/09/02 06:19:37;;;;;;;5.22;3.60;;;13.40;77.10;;;;;;4806129;29;20055;-75
2021/09/02 06:22:04;;;;;;;6.10;3.45;;;13.40;77.10;;;;;;4806250;29;20050;-75
2021/09/02 06:24:32;;;;;;;4.75;3.10;;;13.50;77.00;;;;;;4805841;29;20054;-75
2021/09/02 06:27:00;;;;;;;6.90;3.28;;;13.50;76.90;;;;;;4804757;29;20070;-75
2021/09/02 06:29:28;;;;;;;5.20;3.00;;;13.50;76.80;;;;;;4805434;29;20039;-75
2021/09/02 06:31:55;;;;;;;5.35;3.13;;;13.50;76.80;;;;;;4804478;29;20059;-75
2021/09/02 06:34:23;;;;;;;6.30;3.40;;;13.50;76.80;;;;;;4804915;29;20051;-75
2021/09/02 06:36:50;;;;;;;6.13;3.45;;;13.60;76.70;;;;;;4803758;29;20070;-75
2021/09/02 06:39:18;;;;;;;3.92;3.20;;;13.60;76.80;;;;;;4788859;29;20052;-75
2021/09/02 06:41:45;;;;;;;5.65;4.03;;;13.60;77.00;;;;;;4805039;29;20058;-72
2021/09/02 06:44:13;;;;;;;7.25;3.63;;;13.60;77.00;;;;;;4805802;29;20046;-75
2021/09/02 06:46:41;;;;;;;5.00;3.80;;;13.60;77.10;;;;;;4805175;29;20059;-73
2021/09/02 06:49:08;;;;;;;7.75;4.30;;;13.60;77.30;;;;;;4806178;29;20059;-74
2021/09/02 06:51:37;;;;;;;5.88;3.60;;;13.60;77.30;;;;;;4806102;29;20051;-74
2021/09/02 06:54:05;;;;;;;7.60;4.43;;;13.60;77.40;;;;;;4805722;29;20065;-74
2021/09/02 06:56:33;;;;;;;7.78;4.13;;;13.60;77.50;;;;;;4805833;29;20047;-74
2021/09/02 06:59:00;;;;;;;6.13;4.20;;;13.60;77.60;;;;;;4805956;29;20051;-74
2021/09/02 07:01:28;;;;;;;8.82;3.65;;;13.60;77.70;;;;;;4804869;29;20051;-74
2021/09/02 07:03:56;;;;;;;5.40;3.47;;;13.60;77.80;;;;;;4805931;29;20144;-74
2021/09/02 07:06:24;;;;;;;5.80;3.90;;;13.60;77.80;;;;;;4806004;29;20047;-74
2021/09/02 07:08:51;;;;;;;5.18;4.00;;;13.70;77.80;;;;;;4804608;29;20063;-74
2021/09/02 07:11:19;;;;;;;8.40;4.32;;;13.70;77.80;;;;;;4805226;29;20050;-73
2021/09/02 07:13:46;;;;;;;6.60;4.03;;;13.70;77.90;;;;;;4805271;29;20079;-73
2021/09/02 07:16:14;;;;;;;6.80;3.85;;;13.80;77.80;;;;;;4819034;29;20059;-74
2021/09/02 07:18:42;;;;;;;8.00;3.88;;;13.80;77.70;;;;;;4803900;29;20054;-74
2021/09/02 07:21:09;;;;;;;8.00;4.00;;;13.80;77.60;;;;;;4809223;29;20058;-74
2021/09/02 07:23:37;;;;;;;7.20;3.92;;;13.80;77.60;;;;;;4815872;29;20054;-73
2021/09/02 07:26:05;;;;;;;12.52;3.97;;;13.80;77.60;;;;;;4787565;30;20058;-75
2021/09/02 07:28:32;;;;;;;6.20;3.45;;;13.80;77.50;;;;;;4812538;29;20054;-75
2021/09/02 07:31:02;;;;;;;6.47;3.88;;;13.80;77.40;;;;;;4819108;29;20416;-74
2021/09/02 07:33:30;;;;;;;9.75;3.92;;;13.80;77.30;;;;;;4805627;29;20047;-75
2021/09/02 07:35:58;;;;;;;7.30;4.25;;;13.90;77.40;;;;;;4805272;29;20070;-75
2021/09/02 07:38:25;;;;;;;12.95;4.13;;;13.90;77.30;;;;;;4804750;29;20057;-74
2021/09/02 07:40:53;;;;;;;7.43;4.25;;;14.00;77.30;;;;;;4805116;29;20070;-75
2021/09/02 07:43:28;;;;;;;7.85;3.88;;;14.00;77.20;;;;;;4805603;29;20057;-75
2021/09/02 07:45:56;;;;;;;7.78;4.40;;;14.00;77.10;;;;;;4818889;29;20054;-75
2021/09/02 07:48:24;;;;;;;12.93;4.60;;;14.00;77.00;;;;;;4804190;29;20058;-75
2021/09/02 07:50:52;;;;;;;8.82;4.20;;;14.00;77.00;;;;;;4805095;29;20066;-75
2021/09/02 07:53:21;;;;;;;8.23;4.55;;;14.10;76.80;;;;;;4804661;29;20058;-75
2021/09/02 07:55:48;;;;;;;11.70;4.45;;;14.10;76.70;;;;;;4804899;29;20051;-75
2021/09/02 07:58:16;;;;;;;9.68;4.22;;;14.20;76.70;;;;;;4804561;29;20065;-74
2021/09/02 08:00:43;;;;;;;7.80;4.35;;;14.20;76.60;;;;;;4803076;29;20069;-75
2021/09/02 08:03:11;;;;;;;12.05;4.22;;;14.30;76.50;;;;;;4804336;29;20417;-74
2021/09/02 08:05:39;;;;;;;8.18;4.18;;;14.30;76.40;;;;;;4804494;29;20055;-74
2021/09/02 08:08:06;;;;;;;7.10;4.05;;;14.40;76.20;;;;;;4804575;29;20078;-74
2021/09/02 08:10:34;;;;;;;6.72;4.30;;;14.50;76.10;;;;;;4803685;29;20051;-75
2021/09/02 08:13:02;;;;;;;12.90;5.00;;;14.50;75.80;;;;;;4802779;29;20073;-74
2021/09/02 08:15:30;;;;;;;12.30;5.20;;;14.60;75.60;;;;;;4805020;29;20054;-73
2021/09/02 08:17:59;;;;;;;12.32;4.45;;;14.60;75.70;;;;;;4818396;29;20067;-74
2021/09/02 08:20:27;;;;;;;9.55;4.88;;;14.70;75.60;;;;;;4815021;29;20063;-74
2021/09/02 08:22:55;;;;;;;7.93;4.32;;;14.80;75.50;;;;;;4804067;29;20424;-74
2021/09/02 08:25:23;;;;;;;11.70;4.57;;;14.80;75.00;;;;;;4789002;29;20047;-80
2021/09/02 08:27:53;;;;;;;13.18;5.47;;;14.90;74.70;;;;;;4818911;29;20050;-80
2021/09/02 08:30:24;;;;;;;8.32;4.45;;;15.00;74.40;;;;;;4804335;29;20063;-79
2021/09/02 08:32:52;;;;;;;9.32;4.88;;;14.90;73.90;;;;;;4804096;29;20051;-75
2021/09/02 08:35:23;;;;;;;10.43;5.07;;;14.90;73.80;;;;;;4803962;29;20524;-74
2021/09/02 08:37:53;;;;;;;8.48;5.43;;;14.90;73.70;;;;;;4804310;29;20059;-75
2021/09/02 08:40:25;;;;;;;8.38;4.82;;;14.90;73.70;;;;;;4805003;29;20051;-75
2021/09/02 08:42:54;;;;;;;9.85;4.80;;;15.00;73.60;;;;;;4804841;29;20055;-76
2021/09/02 08:45:23;;;;;;;8.13;5.53;;;14.90;73.60;;;;;;4805016;29;20146;-75
2021/09/02 08:47:51;;;;;;;9.38;5.25;;;14.90;73.70;;;;;;4814912;29;20054;-74
2021/09/02 08:50:23;;;;;;;13.93;5.28;;;14.90;73.70;;;;;;4818828;29;20047;-76
2021/09/02 08:52:52;;;;;;;12.40;5.90;;;14.90;73.70;;;;;;4800485;29;20058;-74
2021/09/02 08:55:20;;;;;;;11.77;5.35;;;14.90;73.90;;;;;;4815030;29;20057;-74
2021/09/02 08:57:50;;;;;;;14.02;6.00;;;14.90;74.00;;;;;;4822329;29;20161;-74
2021/09/02 09:00:20;;;;;;;13.68;6.00;;;14.90;73.90;;;;;;4821869;29;20058;-73
2021/09/02 09:03:18;;;;;;;17.73;6.20;;;15.00;73.90;;;;;;4836906;29;20046;-75
2021/09/02 09:05:54;;;;;;;12.65;5.80;;;15.10;73.70;;;;;;4820208;29;20534;-75
2021/09/02 09:08:32;;;;;;;11.88;5.63;;;15.20;73.20;;;;;;4804700;29;20051;-74
2021/09/02 09:11:22;;;;;;;13.05;5.80;;;15.30;72.80;;;;;;4808378;29;20055;-76
2021/09/02 09:14:07;;;;;;;11.73;5.85;;;15.30;72.20;;;;;;4806346;29;20055;-74
2021/09/02 09:16:53;;;;;;;14.15;6.03;;;15.40;71.70;;;;;;4807825;29;20081;-75
2021/09/02 09:19:49;;;;;;;16.23;6.15;;;15.50;71.20;;;;;;4807967;29;20054;-74
2021/09/02 09:22:28;;;;;;;11.90;5.77;;;15.50;71.00;;;;;;4820629;29;20058;-75
2021/09/02 09:25:01;;;;;;;14.02;6.15;;;15.60;70.80;;;;;;4820331;29;20497;-76
2021/09/02 09:27:48;;;;;;;16.05;6.05;;;15.70;70.70;;;;;;4807810;29;20055;-75
2021/09/02 09:30:23;;;;;;;10.38;6.47;;;15.70;70.50;;;;;;4807184;29;20062;-75
2021/09/02 09:32:52;;;;;;;10.27;5.93;;;15.80;70.50;;;;;;4806299;29;20047;-75
2021/09/02 09:35:24;;;;;;;13.73;6.30;;;15.80;70.20;;;;;;4807158;29;20058;-74
2021/09/02 09:38:15;;;;;;;14.00;5.70;;;15.90;70.10;;;;;;4807898;29;20058;-75
2021/09/02 09:40:45;;;;;;;11.18;6.20;;;15.90;70.20;;;;;;4818334;29;20322;-74
2021/09/02 09:43:20;;;;;;;10.20;5.68;;;16.00;70.10;;;;;;4805032;29;20058;-75
2021/09/02 09:45:53;;;;;;;13.48;6.93;;;16.00;70.00;;;;;;4820692;29;20073;-75
2021/09/02 09:48:29;;;;;;;10.68;6.13;;;16.00;70.00;;;;;;4820882;29;20402;-74
2021/09/02 09:51:18;;;;;;;14.65;6.05;;;16.00;70.20;;;;;;4806925;29;20532;-75
2021/09/02 09:53:51;;;;;;;14.98;6.43;;;16.00;70.20;;;;;;4806362;29;20069;-75
2021/09/02 09:56:24;;;;;;;15.02;6.28;;;16.00;70.20;;;;;;4820155;29;20493;-75
2021/09/02 09:58:53;;;;;;;12.35;5.68;;;16.10;70.20;;;;;;4791431;29;20429;-75
2021/09/02 10:01:21;;;;;;;12.98;6.50;;;16.10;70.20;;;;;;4807402;29;20047;-75
2021/09/02 10:03:52;;;;;;;13.85;5.97;;;16.10;70.10;;;;;;4807534;29;20055;-75
2021/09/02 10:06:20;;;;;;;14.30;5.50;;;16.10;70.10;;;;;;4808054;29;20054;-76
2021/09/02 10:08:48;;;;;;;14.98;5.35;;;16.20;69.90;;;;;;4806713;29;20062;-75
2021/09/02 10:11:17;;;;;;;12.30;5.30;;;16.30;69.70;;;;;;4807234;29;20043;-76
2021/09/02 10:13:45;;;;;;;10.32;5.70;;;16.30;69.50;;;;;;4820480;29;20055;-74
2021/09/02 10:16:13;;;;;;;11.75;6.07;;;16.50;69.40;;;;;;4807585;29;20537;-75
2021/09/02 10:18:46;;;;;;;13.35;6.03;;;16.60;69.10;;;;;;4806933;29;20046;-75
2021/09/02 10:21:16;;;;;;;12.10;5.95;;;16.60;68.90;;;;;;4806307;29;20039;-75
2021/09/02 10:23:44;;;;;;;9.20;5.03;;;16.70;68.70;;;;;;4804865;29;20055;-75
2021/09/02 10:26:33;;;;;;;7.50;5.13;;;16.70;68.60;;;;;;4806139;29;20054;-75
2021/09/02 10:29:21;;;;;;;13.18;6.13;;;16.70;68.60;;;;;;4807836;29;20047;-74
2021/09/02 10:31:49;;;;;;;18.77;6.10;;;16.80;68.60;;;;;;4805467;29;20050;-75
2021/09/02 10:34:28;;;;;;;14.35;6.28;;;16.80;68.60;;;;;;4806580;29;20063;-74
2021/09/02 10:36:55;;;;;;;11.65;6.53;;;16.80;68.70;;;;;;4806289;29;20051;-76
2021/09/02 10:39:41;;;;;;;10.48;5.85;;;16.80;68.90;;;;;;4806249;29;20427;-75
2021/09/02 10:42:09;;;;;;;13.02;6.10;;;16.80;68.80;;;;;;4805604;29;20649;-74
2021/09/02 10:44:52;;;;;;;14.57;6.70;;;16.80;68.80;;;;;;4794789;29;20061;-74
2021/09/02 10:47:20;;;;;;;15.00;6.40;;;16.80;68.80;;;;;;4820568;29;20408;-75
2021/09/02 10:50:02;;;;;;;15.88;6.85;;;16.80;68.70;;;;;;4806466;29;20051;-75
2021/09/02 10:52:31;;;;;;;15.50;6.10;;;16.80;68.70;;;;;;4805375;29;20511;-75
2021/09/02 10:55:28;;;;;;;14.77;6.72;;;16.70;68.80;;;;;;4785354;29;20065;-75
2021/09/02 10:57:58;;;;;;;13.15;6.72;;;16.60;69.20;;;;;;4811961;29;20066;-74
2021/09/02 11:00:33;;;;;;;12.70;5.78;;;16.50;69.40;;;;;;4817113;29;20047;-75
2021/09/02 11:03:22;;;;;;;11.02;6.13;;;16.50;69.50;;;;;;4805928;29;20043;-75
2021/09/02 11:05:58;;;;;;;12.63;6.47;;;16.60;69.20;;;;;;4810947;29;20050;-76
2021/09/02 11:08:32;;;;;;;16.38;6.85;;;16.70;69.20;;;;;;4809056;29;20046;-76
2021/09/02 11:11:16;;;;;;;10.35;5.97;;;16.80;69.00;;;;;;4803351;29;20074;-74
2021/09/02 11:13:52;;;;;;;14.00;6.05;;;16.90;68.70;;;;;;4802252;29;20338;-75
2021/09/02 11:16:24;;;;;;;13.18;5.90;;;17.00;68.30;;;;;;4804561;29;20410;-75
2021/09/02 11:18:54;;;;;;;12.50;5.93;;;17.00;68.20;;;;;;4804415;29;20054;-74
2021/09/02 11:21:27;;;;;;;9.48;5.78;;;17.10;68.00;;;;;;4789234;29;20295;-75
2021/09/02 11:24:05;;;;;;;9.77;6.07;;;17.10;67.80;;;;;;4803811;29;20057;-75
2021/09/02 11:26:37;;;;;;;13.32;6.70;;;17.10;67.80;;;;;;4804261;29;20054;-75
2021/09/02 11:29:07;;;;;;;11.20;6.22;;;17.10;67.90;;;;;;4803098;29;20066;-75
2021/09/02 11:31:36;;;;;;;11.90;5.88;;;17.20;67.80;;;;;;4802680;29;20053;-74
2021/09/02 11:34:06;;;;;;;12.00;5.95;;;17.30;67.70;;;;;;4817969;29;20062;-76
2021/09/02 11:36:46;;;;;;;13.02;6.18;;;17.30;67.60;;;;;;4805428;29;20424;-73
2021/09/02 11:39:13;;;;;;;11.38;5.63;;;17.40;67.30;;;;;;4813572;29;20047;-74
2021/09/02 11:41:41;;;;;;;14.02;6.25;;;17.40;67.00;;;;;;4800714;29;20057;-75
2021/09/02 11:44:19;;;;;;;12.50;5.80;;;17.30;66.90;;;;;;4798961;29;20509;-73
2021/09/02 11:46:47;;;;;;;12.60;5.95;;;17.30;67.00;;;;;;4815515;29;20050;-75
2021/09/02 11:49:17;;;;;;;16.38;6.18;;;17.30;67.10;;;;;;4799308;29;20054;-74
2021/09/02 11:51:57;;;;;;;12.73;5.50;;;17.30;67.10;;;;;;4795724;29;20062;-75
2021/09/02 11:54:27;;;;;;;16.45;6.38;;;17.30;67.40;;;;;;4804155;29;20057;-74
2021/09/02 11:56:54;;;;;;;10.77;5.88;;;17.30;67.60;;;;;;4786406;29;20442;-74
2021/09/02 11:59:22;;;;;;;12.32;5.88;;;17.30;67.80;;;;;;4799461;29;20070;-75
2021/09/02 12:01:53;;;;;;;13.98;5.88;;;17.40;67.70;;;;;;4817414;29;20058;-75
2021/09/02 12:04:28;;;;;;;9.55;5.38;;;17.50;67.40;;;;;;4803831;29;20047;-74
2021/09/02 12:07:00;;;;;;;15.65;5.55;;;17.50;67.50;;;;;;4798815;29;20046;-74
2021/09/02 12:09:35;;;;;;;11.35;5.38;;;17.50;67.50;;;;;;4799358;29;20513;-75
2021/09/02 12:12:03;;;;;;;11.65;5.35;;;17.50;67.50;;;;;;4800135;29;20055;-74
2021/09/02 12:14:32;;;;;;;10.05;5.68;;;17.60;67.40;;;;;;4798256;29;20067;-75
2021/09/02 12:17:00;;;;;;;17.05;5.47;;;17.60;67.40;;;;;;4814868;29;20505;-75
2021/09/02 12:19:28;;;;;;;16.15;5.60;;;17.60;67.60;;;;;;4811344;29;20500;-75
2021/09/02 12:22:17;;;;;;;10.23;5.10;;;17.60;67.40;;;;;;4813075;29;20051;-75
2021/09/02 12:24:45;;;;;;;12.50;5.78;;;17.60;67.30;;;;;;4808334;29;20065;-75
2021/09/02 12:27:13;;;;;;;13.60;5.60;;;17.70;67.40;;;;;;4803021;29;20485;-75
2021/09/02 12:29:49;;;;;;;13.32;5.53;;;17.80;67.30;;;;;;4813923;29;20114;-75
2021/09/02 12:32:19;;;;;;;12.13;5.53;;;17.90;67.00;;;;;;4798528;29;20054;-75
2021/09/02 12:34:47;;;;;;;9.25;5.28;;;18.00;66.80;;;;;;4814558;29;20051;-75
2021/09/02 12:37:16;;;;;;;8.95;5.45;;;18.00;66.60;;;;;;4800121;29;20059;-75
2021/09/02 12:39:47;;;;;;;14.80;6.30;;;18.20;66.40;;;;;;4800803;29;20058;-75
2021/09/02 12:42:29;;;;;;;11.95;5.63;;;18.30;66.30;;;;;;4800029;29;20059;-75
2021/09/02 12:45:22;;;;;;;12.85;5.80;;;18.60;65.60;;;;;;4803024;29;20051;-75
2021/09/02 12:48:01;;;;;;;10.48;5.70;;;18.60;65.30;;;;;;4804281;29;20047;-75
2021/09/02 12:50:30;;;;;;;12.55;5.43;;;18.80;65.10;;;;;;4802253;29;20059;-74
2021/09/02 12:53:08;;;;;;;12.52;5.95;;;18.80;64.90;;;;;;4803799;29;20058;-74